Time;durP1;ratioP1;P1;durP2;ratioP2;P2;SDS_P1;SDS_P2;PMS_P1;PMS_P2;Temp;Humidity;BMP_temperature;BMP_pressure;BME280_temperature;BME280_humidity;BME280_pressure;Samples;Min_cycle;Max_cycle;Signal;HPM_P1;HPM_P2
2020/12/30 01:41:45;;;;;;;16.33;11.57;;;3.80;86.00;;;;;;4970458;28;20054;-88
2020/12/30 03:04:07;;;;;;;;;;;;;;;;;;;;;
2020/12/30 03:07:13;;;;;;;;;;;;;;;;;;;;;
2020/12/30 03:10:39;;;;;;;;;;;;;;;;;;;;;
2020/12/30 03:45:01;;;;;;;;;;;;;;;;;;;;;
2020/12/30 04:00:35;;;;;;;20.25;12.57;;;3.50;86.70;;;;;;4949952;28;20034;-84
2020/12/30 04:03:01;;;;;;;20.42;12.82;;;3.50;86.70;;;;;;4956908;28;20034;-84
2020/12/30 04:05:26;;;;;;;22.83;14.48;;;3.40;86.60;;;;;;4970825;28;20027;-85
2020/12/30 04:12:08;;;;;;;;;;;;;;;;;;;;;
2020/12/30 04:14:56;;;;;;;23.65;15.57;;;3.50;86.70;;;;;;4928982;29;20511;-86
2020/12/30 04:17:24;;;;;;;18.20;11.13;;;3.60;86.70;;;;;;4983255;28;20023;-85
2020/12/30 04:26:00;;;;;;;20.95;13.75;;;3.80;86.60;;;;;;4959109;28;20097;-85
2020/12/30 04:28:36;;;;;;;;;;;;;;;;;;;;;
2020/12/30 04:31:28;;;;;;;18.95;12.65;;;3.80;86.60;;;;;;4965007;28;20039;-85
2020/12/30 04:34:49;;;;;;;20.45;12.75;;;3.80;86.70;;;;;;4966819;28;20043;-85
2020/12/30 04:45:08;;;;;;;;;;;;;;;;;;;;;
2020/12/30 04:59:29;;;;;;;;;;;;;;;;;;;;;
2020/12/30 05:06:11;;;;;;;12.23;8.05;;;3.90;86.80;;;;;;4957204;28;20034;-84
2020/12/30 05:08:53;;;;;;;12.93;8.32;;;4.00;86.80;;;;;;4970233;28;20023;-85
2020/12/30 05:31:27;;;;;;;16.27;11.73;;;4.10;86.90;;;;;;4919474;28;20512;-85
2020/12/30 05:38:21;;;;;;;;;;;;;;;;;;;;;
2020/12/30 05:41:49;;;;;;;17.63;11.25;;;4.00;86.70;;;;;;4959251;28;20053;-85
2020/12/30 05:45:10;;;;;;;21.40;13.82;;;4.10;86.80;;;;;;4969522;28;20035;-86
2020/12/30 05:47:35;;;;;;;14.27;9.57;;;4.20;86.80;;;;;;4942049;28;20031;-85
2020/12/30 05:51:22;;;;;;;;;;;;;;;;;;;;;
2020/12/30 05:57:33;;;;;;;;;;;;;;;;;;;;;
2020/12/30 06:00:49;;;;;;;;;;;;;;;;;;;;;
2020/12/30 06:28:29;;;;;;;19.40;13.25;;;4.20;87.00;;;;;;4984967;28;20061;-85
2020/12/30 06:45:59;;;;;;;18.38;12.52;;;4.30;87.10;;;;;;4870606;29;20559;-86
2020/12/30 06:48:50;;;;;;;16.45;11.35;;;4.30;87.20;;;;;;4966552;28;20035;-85
2020/12/30 06:51:42;;;;;;;13.77;9.77;;;4.20;87.10;;;;;;4980381;28;20040;-84
2020/12/30 06:55:39;;;;;;;;;;;;;;;;;;;;;
2020/12/30 07:02:33;;;;;;;;;;;;;;;;;;;;;
2020/12/30 07:05:49;;;;;;;;;;;;;;;;;;;;;
2020/12/30 07:26:36;;;;;;;17.58;11.68;;;4.30;87.20;;;;;;4932437;29;20031;-85
2020/12/30 07:35:55;;;;;;;;;;;;;;;;;;;;;
2020/12/30 07:38:24;;;;;;;16.45;10.82;;;4.40;87.30;;;;;;4939792;29;20496;-85
2020/12/30 07:41:35;;;;;;;12.90;8.77;;;4.30;87.40;;;;;;4964545;28;20105;-85
2020/12/30 07:44:11;;;;;;;13.23;8.93;;;4.30;87.40;;;;;;4974717;28;20037;-85
2020/12/30 07:46:50;;;;;;;;;;;;;;;;;;;;;
2020/12/30 07:49:32;;;;;;;;;;;;;;;;;;;;;
2020/12/30 07:52:10;;;;;;;;;;;;;;;;;;;;;
2020/12/30 07:54:50;;;;;;;17.20;12.50;;;4.40;87.30;;;;;;4979025;28;20030;-85
2020/12/30 08:00:21;;;;;;;11.95;7.57;;;4.40;87.30;;;;;;4976442;28;20097;-85
2020/12/30 08:03:31;;;;;;;16.23;11.05;;;4.50;87.30;;;;;;4979771;28;20121;-85
2020/12/30 08:06:01;;;;;;;11.93;8.55;;;4.50;87.30;;;;;;4975209;28;20034;-85
2020/12/30 08:12:18;;;;;;;;;;;;;;;;;;;;;
2020/12/30 08:14:47;;;;;;;14.48;9.77;;;4.60;87.20;;;;;;4972191;28;20059;-85
2020/12/30 08:48:49;;;;;;;17.95;12.75;;;4.80;87.30;;;;;;5934411;23;20145;-90
2020/12/30 08:57:19;;;;;;;17.63;12.25;;;4.80;87.20;;;;;;5910279;23;20022;-92
2020/12/30 09:06:19;;;;;;;20.00;11.45;;;4.80;87.30;;;;;;4971176;28;20034;-83
2020/12/30 09:08:57;;;;;;;;;;;;;;;;;;;;;
2020/12/30 09:12:07;;;;;;;13.83;9.90;;;4.90;87.30;;;;;;4991284;28;20109;-83
2020/12/30 09:14:43;;;;;;;18.67;12.98;;;4.90;87.30;;;;;;4989722;28;20035;-83
2020/12/30 09:17:13;;;;;;;16.08;11.55;;;4.90;87.30;;;;;;4983727;28;20069;-84
2020/12/30 09:19:38;;;;;;;19.80;13.57;;;4.90;87.40;;;;;;4986304;28;20022;-84
2020/12/30 09:22:11;;;;;;;13.63;9.85;;;4.90;87.40;;;;;;4982496;28;20042;-85
2020/12/30 09:24:38;;;;;;;12.60;9.13;;;4.90;87.40;;;;;;4986014;28;20034;-85
2020/12/30 09:27:21;;;;;;;16.15;11.30;;;5.00;87.40;;;;;;4985456;28;20530;-84
2020/12/30 09:30:26;;;;;;;12.77;8.98;;;5.00;87.40;;;;;;4987995;28;20085;-85
2020/12/30 09:32:54;;;;;;;9.02;6.97;;;5.00;87.40;;;;;;4931467;29;20051;-85
2020/12/30 09:35:28;;;;;;;8.65;6.35;;;5.10;87.30;;;;;;4917299;29;20496;-84
2020/12/30 09:37:59;;;;;;;15.13;10.95;;;5.20;87.20;;;;;;4952986;28;20112;-84
2020/12/30 09:40:26;;;;;;;11.70;7.38;;;5.20;87.10;;;;;;4988386;28;20054;-85
2020/12/30 09:43:06;;;;;;;13.05;8.93;;;5.20;87.10;;;;;;4979251;28;20033;-85
2020/12/30 09:45:33;;;;;;;10.02;7.55;;;5.20;87.00;;;;;;4992080;28;20088;-86
2020/12/30 09:48:13;;;;;;;13.43;9.32;;;5.40;87.10;;;;;;4990062;28;20023;-86
2020/12/30 09:50:41;;;;;;;12.80;9.20;;;5.30;87.10;;;;;;4992349;28;20643;-85
2020/12/30 09:53:07;;;;;;;11.68;7.20;;;5.30;87.00;;;;;;4989897;28;20035;-84
2020/12/30 09:55:32;;;;;;;13.10;9.35;;;5.30;87.00;;;;;;4988314;28;20018;-84
2020/12/30 09:57:58;;;;;;;10.90;7.40;;;5.40;87.00;;;;;;4987433;28;20022;-83
2020/12/30 10:00:24;;;;;;;13.20;10.25;;;5.50;87.00;;;;;;4986532;28;20567;-83
2020/12/30 10:02:51;;;;;;;14.32;10.02;;;5.40;87.00;;;;;;4975906;28;20031;-82
2020/12/30 10:05:18;;;;;;;13.15;8.88;;;5.40;86.80;;;;;;4982227;28;20029;-82
2020/12/30 10:07:43;;;;;;;12.50;7.60;;;5.50;86.90;;;;;;4983934;28;20034;-83
2020/12/30 10:10:09;;;;;;;13.75;9.48;;;5.50;86.80;;;;;;5006750;28;20029;-83
2020/12/30 10:12:44;;;;;;;12.25;9.15;;;5.50;86.70;;;;;;5007879;28;20049;-89
2020/12/30 10:15:11;;;;;;;17.50;11.27;;;5.60;87.00;;;;;;5006779;28;20030;-87
2020/12/30 10:17:37;;;;;;;11.05;8.07;;;5.70;86.90;;;;;;5003239;28;20022;-86
2020/12/30 10:20:05;;;;;;;11.13;7.78;;;5.60;86.90;;;;;;4990475;28;20270;-87
2020/12/30 10:22:31;;;;;;;13.95;9.60;;;5.60;86.90;;;;;;4987865;28;20101;-84
2020/12/30 10:24:58;;;;;;;15.65;10.63;;;5.60;86.90;;;;;;4989646;28;20507;-85
2020/12/30 10:27:23;;;;;;;14.13;9.35;;;5.70;86.90;;;;;;4986370;28;20485;-84
2020/12/30 10:29:49;;;;;;;15.20;9.57;;;5.50;86.90;;;;;;4986892;28;20027;-84
2020/12/30 10:32:15;;;;;;;9.68;7.00;;;5.70;87.00;;;;;;4986708;28;20027;-84
2020/12/30 10:34:40;;;;;;;11.82;8.10;;;5.60;86.90;;;;;;4991562;28;20043;-84
2020/12/30 10:37:06;;;;;;;15.00;10.93;;;5.70;86.80;;;;;;4989735;28;20015;-90
2020/12/30 10:39:33;;;;;;;17.70;13.13;;;5.70;86.70;;;;;;4999600;28;20554;-88
2020/12/30 10:42:00;;;;;;;9.88;7.30;;;5.70;86.70;;;;;;4988512;28;20034;-88
2020/12/30 10:44:26;;;;;;;13.63;9.63;;;5.70;86.70;;;;;;4988568;28;20086;-84
2020/12/30 10:46:55;;;;;;;13.13;9.07;;;5.70;86.70;;;;;;4985946;28;20530;-82
2020/12/30 10:49:21;;;;;;;12.27;8.75;;;5.70;86.80;;;;;;4980860;28;20384;-85
2020/12/30 10:51:51;;;;;;;10.25;7.57;;;5.70;86.80;;;;;;4979177;28;21069;-85
2020/12/30 10:54:17;;;;;;;14.23;9.52;;;5.70;86.80;;;;;;4991158;28;20022;-83
2020/12/30 10:56:53;;;;;;;12.00;8.80;;;5.80;86.80;;;;;;4988580;28;20022;-81
2020/12/30 10:59:20;;;;;;;13.73;10.10;;;5.80;86.80;;;;;;4976928;28;20030;-86
2020/12/30 11:02:01;;;;;;;15.15;11.40;;;5.80;86.70;;;;;;4959467;28;20031;-85
2020/12/30 11:04:26;;;;;;;10.90;7.85;;;5.80;86.70;;;;;;4995746;28;20026;-84
2020/12/30 11:06:52;;;;;;;11.32;8.25;;;5.80;86.70;;;;;;4985800;28;20440;-84
2020/12/30 11:09:18;;;;;;;12.73;9.15;;;5.80;86.70;;;;;;4980458;28;20033;-85
2020/12/30 11:11:44;;;;;;;13.82;9.40;;;5.90;86.70;;;;;;4972081;28;20029;-85
2020/12/30 11:14:10;;;;;;;13.52;10.23;;;6.00;86.70;;;;;;4978632;28;20026;-85
2020/12/30 11:16:35;;;;;;;11.40;8.30;;;5.90;86.60;;;;;;4989371;28;20447;-85
2020/12/30 11:19:01;;;;;;;12.25;9.18;;;5.90;86.60;;;;;;4981106;28;20121;-85
2020/12/30 11:21:26;;;;;;;11.32;8.27;;;5.90;86.60;;;;;;4988506;28;20045;-85
2020/12/30 11:23:52;;;;;;;16.00;10.75;;;6.10;86.70;;;;;;4980238;28;20038;-85
2020/12/30 11:26:20;;;;;;;13.30;9.88;;;6.00;86.60;;;;;;4990668;28;20420;-85
2020/12/30 11:28:46;;;;;;;10.73;7.82;;;6.00;86.60;;;;;;4975945;28;20415;-85
2020/12/30 11:31:13;;;;;;;13.60;9.82;;;6.10;86.50;;;;;;4987717;28;20022;-85
2020/12/30 11:33:39;;;;;;;11.43;8.02;;;6.10;86.50;;;;;;4970441;28;20051;-84
2020/12/30 11:36:04;;;;;;;13.40;9.13;;;6.10;86.40;;;;;;4987448;28;20011;-85
2020/12/30 11:38:30;;;;;;;7.00;5.45;;;6.20;86.30;;;;;;4989380;28;20526;-85
2020/12/30 11:40:57;;;;;;;12.95;8.10;;;6.10;86.20;;;;;;4982196;28;20049;-85
2020/12/30 11:43:23;;;;;;;13.00;9.63;;;6.20;86.30;;;;;;4979136;28;20114;-85
2020/12/30 11:45:49;;;;;;;10.73;7.18;;;6.20;86.20;;;;;;4993803;28;20022;-85
2020/12/30 11:48:16;;;;;;;12.68;9.18;;;6.30;86.30;;;;;;4985558;28;20123;-85
2020/12/30 11:50:42;;;;;;;12.63;8.60;;;6.30;86.10;;;;;;4989775;28;20037;-86
2020/12/30 11:53:07;;;;;;;12.20;8.40;;;6.30;86.10;;;;;;4984263;28;20396;-85
2020/12/30 11:55:33;;;;;;;9.35;7.35;;;6.30;86.00;;;;;;4979712;28;20031;-85
2020/12/30 11:57:58;;;;;;;8.10;6.20;;;6.40;86.10;;;;;;4985990;28;20125;-85
2020/12/30 12:00:24;;;;;;;10.73;7.60;;;6.40;86.10;;;;;;4988536;28;20022;-85
2020/12/30 12:02:51;;;;;;;8.38;6.32;;;6.30;86.00;;;;;;4996835;28;20523;-85
2020/12/30 12:05:17;;;;;;;11.60;8.45;;;6.40;86.00;;;;;;4980142;28;20007;-85
2020/12/30 12:07:42;;;;;;;9.43;7.07;;;6.30;86.00;;;;;;5002119;28;20033;-86
2020/12/30 12:10:24;;;;;;;9.05;7.13;;;6.30;86.00;;;;;;4984896;28;20089;-85
2020/12/30 12:12:49;;;;;;;9.38;6.70;;;6.40;86.10;;;;;;4982025;28;20031;-86
2020/12/30 12:15:35;;;;;;;9.68;6.60;;;6.40;86.10;;;;;;4987029;28;20058;-85
2020/12/30 12:18:01;;;;;;;9.90;6.43;;;6.50;86.20;;;;;;4974982;28;20381;-85
2020/12/30 12:20:29;;;;;;;10.10;7.22;;;6.50;86.60;;;;;;4979082;28;20018;-85
2020/12/30 12:22:56;;;;;;;9.75;7.43;;;6.60;86.00;;;;;;4990560;28;20257;-85
2020/12/30 12:25:24;;;;;;;7.65;6.10;;;6.40;85.80;;;;;;4975921;28;20532;-86
2020/12/30 12:27:54;;;;;;;9.90;6.70;;;6.50;85.90;;;;;;4981993;28;20023;-85
2020/12/30 12:30:20;;;;;;;8.27;6.05;;;6.50;86.00;;;;;;5006124;28;20125;-84
2020/12/30 12:32:46;;;;;;;7.00;5.55;;;6.50;86.00;;;;;;5000681;28;20034;-85
2020/12/30 12:35:21;;;;;;;5.15;4.10;;;6.50;86.00;;;;;;4988757;28;20029;-84
2020/12/30 12:38:07;;;;;;;8.25;5.97;;;6.60;86.00;;;;;;4986748;28;20031;-84
2020/12/30 12:40:43;;;;;;;7.53;5.40;;;6.60;85.90;;;;;;5002745;28;20046;-88
2020/12/30 12:43:28;;;;;;;;;;;;;;;;;;;;;
2020/12/30 12:46:04;;;;;;;8.23;5.78;;;6.60;85.80;;;;;;4980287;28;20023;-85
2020/12/30 12:48:35;;;;;;;4.75;3.78;;;6.60;85.80;;;;;;4991374;28;20476;-85
2020/12/30 12:51:15;;;;;;;10.18;7.28;;;6.60;86.40;;;;;;4983333;28;20472;-85
2020/12/30 12:53:53;;;;;;;;;;;;;;;;;;;;;
2020/12/30 12:56:38;;;;;;;6.18;4.72;;;6.70;85.90;;;;;;4982216;28;20357;-85
2020/12/30 12:59:03;;;;;;;8.93;6.18;;;6.70;85.90;;;;;;4980470;28;20044;-86
2020/12/30 13:01:29;;;;;;;7.95;5.32;;;6.80;85.90;;;;;;4980701;28;20109;-83
2020/12/30 13:04:05;;;;;;;5.43;3.85;;;6.80;85.80;;;;;;4989016;28;20034;-85
2020/12/30 13:06:40;;;;;;;6.80;4.80;;;6.80;85.80;;;;;;4982712;28;20479;-85
2020/12/30 13:09:15;;;;;;;8.40;5.72;;;6.90;85.80;;;;;;4985546;28;20023;-85
2020/12/30 13:11:49;;;;;;;8.50;4.88;;;6.80;85.70;;;;;;4989314;28;20033;-85
2020/12/30 13:14:16;;;;;;;4.75;3.65;;;6.90;85.70;;;;;;4983585;28;20122;-84
2020/12/30 13:16:52;;;;;;;9.30;6.40;;;7.00;85.80;;;;;;4993106;28;20501;-85
2020/12/30 13:19:18;;;;;;;7.28;5.10;;;6.90;85.70;;;;;;4989482;28;20026;-85
2020/12/30 13:21:45;;;;;;;7.57;5.72;;;7.00;85.80;;;;;;4981214;28;20022;-85
2020/12/30 13:24:13;;;;;;;8.75;5.95;;;7.00;85.80;;;;;;4986605;28;20027;-84
2020/12/30 13:26:48;;;;;;;7.80;5.57;;;6.90;85.70;;;;;;4975905;28;20049;-86
2020/12/30 13:29:13;;;;;;;6.20;4.43;;;6.90;85.80;;;;;;4974212;28;20101;-83
2020/12/30 13:31:39;;;;;;;6.35;4.50;;;7.00;85.80;;;;;;4984413;28;20022;-83
2020/12/30 13:34:05;;;;;;;7.18;4.97;;;7.00;85.80;;;;;;4989812;28;20388;-83
2020/12/30 13:36:31;;;;;;;6.50;4.28;;;7.00;85.80;;;;;;4980757;28;20117;-83
2020/12/30 13:38:59;;;;;;;5.88;3.58;;;7.10;85.90;;;;;;4979437;28;20052;-84
2020/12/30 13:41:26;;;;;;;4.63;3.67;;;7.10;85.80;;;;;;4995611;28;20010;-84
2020/12/30 13:43:52;;;;;;;6.15;4.05;;;7.00;85.80;;;;;;4993811;28;20011;-84
2020/12/30 13:46:18;;;;;;;3.95;2.88;;;7.00;85.80;;;;;;5000258;28;20046;-83
2020/12/30 13:48:44;;;;;;;4.88;3.47;;;7.20;85.90;;;;;;4998621;28;20042;-84
2020/12/30 13:51:10;;;;;;;5.10;3.45;;;7.10;85.90;;;;;;4982536;28;20018;-84
2020/12/30 13:53:35;;;;;;;4.45;3.00;;;7.10;86.50;;;;;;4991434;28;20046;-84
2020/12/30 13:56:02;;;;;;;3.92;2.72;;;7.10;85.80;;;;;;4990140;28;20021;-86
2020/12/30 13:58:27;;;;;;;3.92;3.38;;;7.20;85.80;;;;;;5013454;28;20086;-88
2020/12/30 14:00:53;;;;;;;5.40;3.60;;;7.10;85.60;;;;;;5013152;28;20019;-88
2020/12/30 14:03:19;;;;;;;4.22;3.45;;;7.10;85.60;;;;;;5000965;28;20029;-86
2020/12/30 14:05:46;;;;;;;5.20;3.60;;;7.20;85.70;;;;;;4991468;28;20042;-89
2020/12/30 14:08:12;;;;;;;4.50;3.38;;;7.30;85.70;;;;;;4997572;28;20113;-84
2020/12/30 14:10:39;;;;;;;4.45;2.95;;;7.30;85.70;;;;;;4994233;28;20019;-86
2020/12/30 14:13:05;;;;;;;5.28;3.38;;;7.30;85.60;;;;;;5000816;28;20034;-84
2020/12/30 14:15:31;;;;;;;5.03;3.53;;;7.40;85.60;;;;;;4994798;28;20049;-84
2020/12/30 14:17:57;;;;;;;7.28;5.40;;;7.30;85.70;;;;;;4995859;28;20030;-85
2020/12/30 14:20:22;;;;;;;7.22;5.88;;;7.20;85.60;;;;;;5001020;28;20601;-84
2020/12/30 14:22:50;;;;;;;8.35;6.20;;;7.20;85.60;;;;;;5000924;28;20030;-83
2020/12/30 14:25:16;;;;;;;5.35;3.85;;;7.20;85.60;;;;;;4999796;28;20014;-85
2020/12/30 14:27:42;;;;;;;8.00;5.00;;;7.10;85.60;;;;;;5003597;28;20017;-85
2020/12/30 14:30:07;;;;;;;5.82;3.53;;;7.10;85.60;;;;;;4998695;28;20026;-83
2020/12/30 14:32:33;;;;;;;4.38;3.08;;;7.10;85.60;;;;;;4995001;28;20138;-84
2020/12/30 14:34:59;;;;;;;4.40;2.60;;;7.10;85.60;;;;;;4993721;28;20022;-84
2020/12/30 14:37:24;;;;;;;2.28;2.00;;;7.10;85.60;;;;;;4992667;28;20384;-84
2020/12/30 14:39:50;;;;;;;2.42;1.85;;;7.00;85.60;;;;;;4980708;28;20061;-84
2020/12/30 14:42:16;;;;;;;3.17;1.80;;;7.00;85.60;;;;;;4987051;28;20058;-84
2020/12/30 14:44:41;;;;;;;2.95;1.60;;;7.00;85.60;;;;;;4993844;28;20065;-84
2020/12/30 14:47:11;;;;;;;62.65;46.22;;;7.00;85.60;;;;;;4986272;28;20049;-83
2020/12/30 14:49:38;;;;;;;12.60;9.70;;;6.90;85.70;;;;;;4983228;28;20026;-84
2020/12/30 14:52:47;;;;;;;4.28;3.45;;;6.80;85.60;;;;;;4981000;28;20045;-85
2020/12/30 14:58:31;;;;;;;;;;;;;;;;;;;;;
2020/12/30 15:01:21;;;;;;;6.28;5.13;;;6.60;85.60;;;;;;4981230;28;20045;-85
2020/12/30 15:03:57;;;;;;;;;;;;;;;;;;;;;
2020/12/30 15:06:38;;;;;;;;;;;;;;;;;;;;;
2020/12/30 15:09:36;;;;;;;2.97;2.28;;;6.60;85.80;;;;;;4991544;28;20034;-84
2020/12/30 15:12:19;;;;;;;6.85;4.85;;;6.60;85.80;;;;;;4980067;28;20074;-85
2020/12/30 15:14:58;;;;;;;2.47;1.90;;;6.60;85.70;;;;;;4989215;28;20031;-85
2020/12/30 15:17:55;;;;;;;1.88;1.30;;;6.70;85.80;;;;;;4983894;28;20479;-85
2020/12/30 15:21:02;;;;;;;2.30;1.88;;;6.50;85.80;;;;;;4987462;28;20042;-85
2020/12/30 15:23:31;;;;;;;6.97;6.28;;;6.60;85.80;;;;;;4977991;28;20041;-85
2020/12/30 15:25:59;;;;;;;3.95;3.30;;;6.60;85.80;;;;;;4991550;28;20026;-85
2020/12/30 15:28:27;;;;;;;3.33;2.78;;;6.60;85.80;;;;;;4985601;28;20037;-84
2020/12/30 15:30:53;;;;;;;3.33;1.83;;;6.60;85.80;;;;;;4991079;28;20052;-84
2020/12/30 15:33:22;;;;;;;1.40;1.17;;;6.60;85.80;;;;;;4979367;28;20039;-85
2020/12/30 15:39:20;;;;;;;3.38;1.48;;;6.60;85.80;;;;;;4989610;28;20049;-85
2020/12/30 15:41:45;;;;;;;3.47;1.80;;;6.50;85.70;;;;;;4987193;28;20037;-84
2020/12/30 15:47:37;;;;;;;1.67;1.20;;;6.50;85.80;;;;;;4981195;28;20037;-85
2020/12/30 15:50:13;;;;;;;2.10;1.50;;;6.40;85.80;;;;;;4979971;28;20042;-84
2020/12/30 15:52:47;;;;;;;2.40;1.70;;;6.40;86.00;;;;;;4980292;28;20031;-85
2020/12/30 16:01:46;;;;;;;;;;;;;;;;;;;;;
2020/12/30 16:04:39;;;;;;;;;;;;;;;;;;;;;
2020/12/30 16:10:56;;;;;;;3.70;2.22;;;6.20;86.40;;;;;;4989154;28;20050;-85
2020/12/30 16:13:39;;;;;;;2.60;1.75;;;6.10;86.40;;;;;;4993891;28;20048;-85
2020/12/30 16:16:56;;;;;;;;;;;;;;;;;;;;;
2020/12/30 16:20:33;;;;;;;;;;;;;;;;;;;;;
2020/12/30 16:23:54;;;;;;;;;;;;;;;;;;;;;
2020/12/30 16:26:38;;;;;;;;;;;;;;;;;;;;;
2020/12/30 16:33:31;;;;;;;;;;;;;;;;;;;;;
2020/12/30 16:46:07;;;;;;;7.10;2.90;;;6.20;86.30;;;;;;4978227;28;20038;-86
2020/12/30 16:59:20;;;;;;;;;;;;;;;;;;;;;
2020/12/30 17:02:14;;;;;;;;;;;;;;;;;;;;;
2020/12/30 17:05:27;;;;;;;;;;;;;;;;;;;;;
2020/12/30 17:11:05;;;;;;;3.83;2.45;;;6.30;86.30;;;;;;4986619;28;20035;-82
2020/12/30 17:13:41;;;;;;;2.95;2.28;;;6.30;86.20;;;;;;4972324;28;20451;-82
2020/12/30 17:19:45;;;;;;;3.53;2.85;;;6.40;86.30;;;;;;4979127;28;20068;-82
2020/12/30 17:25:09;;;;;;;3.90;2.65;;;6.30;86.20;;;;;;4978198;28;20811;-86
2020/12/30 17:27:35;;;;;;;6.03;3.72;;;6.30;86.30;;;;;;4982224;28;20050;-86
2020/12/30 17:30:01;;;;;;;5.45;3.45;;;6.30;86.20;;;;;;4978343;28;20050;-86
2020/12/30 17:32:28;;;;;;;5.13;2.25;;;6.20;86.10;;;;;;4975027;28;20034;-82
2020/12/30 17:34:53;;;;;;;3.70;2.10;;;6.20;86.10;;;;;;4979030;28;20033;-81
2020/12/30 17:37:19;;;;;;;8.25;6.65;;;6.30;86.30;;;;;;4978483;28;20551;-82
2020/12/30 17:39:45;;;;;;;3.55;2.38;;;6.20;86.20;;;;;;4980145;28;20061;-82
2020/12/30 17:42:11;;;;;;;2.72;2.28;;;6.20;86.20;;;;;;4973216;28;20019;-82
2020/12/30 17:44:36;;;;;;;5.72;3.30;;;6.10;86.10;;;;;;4977460;28;20019;-83
2020/12/30 17:47:02;;;;;;;4.95;2.83;;;6.10;86.20;;;;;;4979635;28;20055;-83
2020/12/30 17:49:28;;;;;;;4.72;2.92;;;6.10;86.20;;;;;;4979572;28;20022;-83
2020/12/30 17:51:54;;;;;;;3.38;2.80;;;6.00;86.20;;;;;;4982028;28;20026;-84
2020/12/30 17:54:19;;;;;;;4.13;3.05;;;6.00;86.20;;;;;;4975520;28;20041;-84
2020/12/30 17:56:45;;;;;;;6.47;3.58;;;6.00;86.20;;;;;;4975715;28;20424;-84
2020/12/30 17:59:11;;;;;;;5.35;3.00;;;5.90;86.20;;;;;;4981197;28;20038;-84
2020/12/30 18:01:38;;;;;;;6.10;4.45;;;5.90;86.30;;;;;;4984303;28;20018;-84
2020/12/30 18:04:04;;;;;;;6.18;3.78;;;5.90;86.30;;;;;;4980732;28;20101;-84
2020/12/30 18:06:30;;;;;;;10.38;6.63;;;5.90;86.20;;;;;;4986851;28;20103;-84
2020/12/30 18:08:56;;;;;;;7.90;4.10;;;5.90;86.10;;;;;;4976477;28;20384;-84
2020/12/30 18:11:24;;;;;;;5.63;3.95;;;6.00;86.10;;;;;;4994373;28;20132;-83
2020/12/30 18:13:54;;;;;;;7.45;4.65;;;5.90;86.10;;;;;;4980197;28;20157;-84
2020/12/30 18:16:26;;;;;;;6.93;4.55;;;5.80;86.00;;;;;;4992512;28;20018;-83
2020/12/30 18:18:51;;;;;;;5.70;4.28;;;5.90;86.00;;;;;;4985347;28;20161;-86
2020/12/30 18:21:20;;;;;;;8.23;5.50;;;5.80;86.00;;;;;;4989814;28;20042;-84
2020/12/30 18:23:46;;;;;;;7.32;4.93;;;5.80;86.10;;;;;;4985296;28;20030;-83
2020/12/30 18:26:12;;;;;;;6.90;4.38;;;5.80;86.10;;;;;;4985481;28;20124;-85
2020/12/30 18:28:37;;;;;;;7.47;5.07;;;5.90;86.10;;;;;;4991056;28;20504;-85
2020/12/30 18:31:05;;;;;;;7.13;5.47;;;5.80;86.00;;;;;;4987125;28;20022;-84
2020/12/30 18:33:30;;;;;;;9.52;5.63;;;5.80;86.10;;;;;;4986090;28;20035;-83
2020/12/30 18:35:56;;;;;;;7.85;5.63;;;5.80;86.10;;;;;;4987582;28;20081;-85
2020/12/30 18:38:22;;;;;;;9.65;6.03;;;5.80;86.10;;;;;;4988866;28;20034;-84
2020/12/30 18:40:48;;;;;;;7.13;5.10;;;5.70;86.00;;;;;;4988661;28;20026;-85
2020/12/30 18:43:15;;;;;;;6.35;4.50;;;5.80;86.20;;;;;;4985640;28;20029;-85
2020/12/30 18:45:40;;;;;;;8.05;4.93;;;5.80;86.20;;;;;;4985458;28;20460;-84
2020/12/30 18:48:06;;;;;;;8.02;5.47;;;5.70;86.30;;;;;;4994684;28;20027;-84
2020/12/30 18:50:32;;;;;;;11.73;8.10;;;5.70;86.20;;;;;;4986366;28;20026;-85
2020/12/30 18:52:57;;;;;;;8.02;6.22;;;5.70;86.10;;;;;;4987773;28;20035;-86
2020/12/30 18:55:23;;;;;;;11.07;8.18;;;5.60;86.10;;;;;;4982431;28;20019;-86
2020/12/30 18:57:51;;;;;;;10.00;7.55;;;5.60;86.20;;;;;;4987395;28;20038;-84
2020/12/30 19:00:17;;;;;;;12.35;8.05;;;5.60;86.30;;;;;;5001503;28;20032;-84
2020/12/30 19:02:43;;;;;;;12.57;8.65;;;5.50;86.30;;;;;;5009297;28;20046;-83
2020/12/30 19:05:09;;;;;;;11.27;8.40;;;5.50;86.40;;;;;;5006282;28;20065;-85
2020/12/30 19:07:35;;;;;;;11.23;7.90;;;5.50;86.40;;;;;;4999407;28;20018;-84
2020/12/30 19:10:01;;;;;;;11.60;8.85;;;5.50;86.40;;;;;;4988216;28;20073;-84
2020/12/30 19:12:29;;;;;;;13.23;8.80;;;5.50;86.40;;;;;;4999335;28;20058;-85
2020/12/30 19:14:55;;;;;;;10.27;7.53;;;5.50;86.40;;;;;;5014170;28;20022;-86
2020/12/30 19:17:21;;;;;;;13.20;9.15;;;5.50;86.30;;;;;;5014657;28;20105;-86
2020/12/30 19:19:48;;;;;;;12.40;8.05;;;5.50;86.30;;;;;;5005446;28;20038;-88
2020/12/30 19:22:16;;;;;;;11.70;8.85;;;5.60;86.30;;;;;;4992942;28;20027;-87
2020/12/30 19:24:42;;;;;;;16.80;12.18;;;5.60;86.20;;;;;;4995001;28;20476;-87
2020/12/30 19:27:08;;;;;;;15.60;10.82;;;5.70;86.20;;;;;;4988331;28;20120;-86
2020/12/30 19:29:34;;;;;;;15.32;11.20;;;5.60;86.00;;;;;;4986499;28;20046;-87
2020/12/30 19:32:00;;;;;;;15.00;10.85;;;5.60;86.00;;;;;;4986429;28;20022;-87
2020/12/30 19:34:26;;;;;;;15.07;10.05;;;5.60;86.00;;;;;;4991888;28;20157;-87
2020/12/30 19:36:51;;;;;;;12.77;8.77;;;5.60;85.90;;;;;;4989038;28;20065;-86
2020/12/30 19:39:17;;;;;;;18.27;13.18;;;5.60;85.90;;;;;;5014179;28;20014;-87
2020/12/30 19:41:43;;;;;;;14.93;10.35;;;5.50;85.90;;;;;;5008178;28;20035;-88
2020/12/30 19:44:09;;;;;;;12.70;9.10;;;5.70;86.00;;;;;;4988040;28;20078;-86
2020/12/30 19:46:37;;;;;;;12.30;8.85;;;5.50;85.90;;;;;;4991468;28;20010;-85
2020/12/30 19:49:41;;;;;;;18.25;13.07;;;5.50;86.00;;;;;;5008524;28;20086;-86
2020/12/30 19:52:33;;;;;;;16.73;11.32;;;5.50;85.90;;;;;;4985330;28;20174;-84
2020/12/30 19:55:09;;;;;;;11.88;8.13;;;5.40;85.80;;;;;;4989989;28;20121;-84
2020/12/30 19:57:47;;;;;;;;;;;;;;;;;;;;;
2020/12/30 20:00:52;;;;;;;;;;;;;;;;;;;;;
2020/12/30 20:03:34;;;;;;;14.32;10.77;;;5.30;85.90;;;;;;4981058;28;20042;-85
2020/12/30 20:06:22;;;;;;;;;;;;;;;;;;;;;
2020/12/30 20:08:57;;;;;;;14.25;9.40;;;5.20;86.30;;;;;;4988788;28;19916;-85
2020/12/30 20:11:25;;;;;;;11.70;8.20;;;5.20;85.90;;;;;;4985364;28;20126;-85
2020/12/30 20:13:53;;;;;;;21.17;13.43;;;5.30;86.00;;;;;;4981728;28;20053;-85
2020/12/30 20:16:18;;;;;;;18.95;12.60;;;5.20;86.00;;;;;;4984408;28;20030;-85
2020/12/30 20:19:40;;;;;;;;;;;;;;;;;;;;;
2020/12/30 20:22:13;;;;;;;19.85;13.20;;;5.10;86.00;;;;;;4983352;28;20038;-86
2020/12/30 20:24:53;;;;;;;;;;;5.20;86.00;;;;;;4985667;28;20493;-86
2020/12/30 20:27:46;;;;;;;;;;;;;;;;;;;;;
2020/12/30 20:30:16;;;;;;;14.15;9.88;;;5.00;85.90;;;;;;4986637;28;20032;-85
2020/12/30 20:33:12;;;;;;;;;;;;;;;;;;;;;
2020/12/30 20:35:40;;;;;;;14.13;10.48;;;5.00;85.90;;;;;;4987518;28;20030;-86
2020/12/30 20:38:18;;;;;;;15.02;11.27;;;5.10;85.90;;;;;;4989962;28;20499;-85
2020/12/30 20:41:04;;;;;;;15.57;11.60;;;5.00;85.90;;;;;;4993696;28;20034;-85
2020/12/30 20:43:30;;;;;;;16.95;11.52;;;5.00;85.80;;;;;;4979531;28;20066;-86
2020/12/30 20:46:08;;;;;;;;;;;;;;;;;;;;;
2020/12/30 20:48:44;;;;;;;12.43;9.20;;;4.90;85.80;;;;;;4984398;28;20019;-86
2020/12/30 20:51:44;;;;;;;;;;;;;;;;;;;;;
2020/12/30 20:54:50;;;;;;;;;;;;;;;;;;;;;
2020/12/30 21:00:15;;;;;;;;;;;;;;;;;;;;;
2020/12/30 21:03:19;;;;;;;;;;;;;;;;;;;;;
2020/12/30 21:06:26;;;;;;;16.42;11.48;;;4.80;85.80;;;;;;4987466;28;20030;-86
2020/12/30 21:08:53;;;;;;;14.43;9.98;;;4.90;85.80;;;;;;4975696;28;20037;-92
2020/12/30 21:11:19;;;;;;;12.20;9.18;;;4.80;85.60;;;;;;4989560;28;20030;-84
2020/12/30 21:13:44;;;;;;;13.00;9.13;;;4.80;85.60;;;;;;4985450;28;20039;-86
2020/12/30 21:16:10;;;;;;;13.05;9.05;;;4.80;85.60;;;;;;4977262;28;20114;-87
2020/12/30 21:18:36;;;;;;;13.20;8.68;;;4.80;85.40;;;;;;4985392;28;20598;-90
2020/12/30 21:21:01;;;;;;;11.35;8.18;;;4.80;85.40;;;;;;4986094;28;20492;-87
2020/12/30 21:23:27;;;;;;;10.30;7.30;;;4.80;85.30;;;;;;4982774;28;20057;-86
2020/12/30 21:25:53;;;;;;;10.45;7.85;;;4.80;85.40;;;;;;4980669;28;20085;-86
2020/12/30 21:28:18;;;;;;;16.23;10.93;;;4.80;85.30;;;;;;4982071;28;20014;-89
2020/12/30 21:30:44;;;;;;;12.18;7.97;;;4.80;85.20;;;;;;4989211;28;20031;-85
2020/12/30 21:33:10;;;;;;;13.02;8.95;;;4.80;85.20;;;;;;4985632;28;20125;-88
2020/12/30 21:35:36;;;;;;;12.15;9.18;;;4.80;85.10;;;;;;4995740;28;20443;-88
2020/12/30 21:38:02;;;;;;;16.83;11.25;;;4.70;85.00;;;;;;4988173;28;20027;-88
2020/12/30 21:40:28;;;;;;;14.45;9.65;;;4.80;85.00;;;;;;4990402;28;20018;-87
2020/12/30 21:42:54;;;;;;;11.07;8.65;;;4.80;85.00;;;;;;4986161;28;20037;-89
2020/12/30 21:45:19;;;;;;;12.35;8.95;;;4.80;85.00;;;;;;4994421;28;20768;-89
2020/12/30 21:47:45;;;;;;;10.85;8.75;;;4.80;85.00;;;;;;4989857;28;20026;-89
2020/12/30 21:50:10;;;;;;;13.20;9.02;;;4.80;84.90;;;;;;4992647;28;20494;-89
2020/12/30 21:52:36;;;;;;;8.75;6.43;;;4.70;84.80;;;;;;4998896;28;20493;-89
2020/12/30 21:55:03;;;;;;;12.13;9.20;;;4.80;84.80;;;;;;4998975;28;20014;-90
2020/12/30 21:57:29;;;;;;;9.02;5.28;;;4.80;84.80;;;;;;4995109;28;20033;-90
2020/12/30 21:59:55;;;;;;;7.25;5.32;;;4.80;84.80;;;;;;4990502;28;20019;-88
2020/12/30 22:02:21;;;;;;;9.77;6.97;;;5.00;85.50;;;;;;4982004;28;20065;-89